sensor_id;sensor_type;location;lat;lon;timestamp;temperature;humidity
35313;DHT22;21425;50.454;30.466;2022-08-24T00:01:11;21.50;68.00
35313;DHT22;21425;50.454;30.466;2022-08-24T00:03:38;21.50;68.70
35313;DHT22;21425;50.454;30.466;2022-08-24T00:06:07;21.50;69.40
35313;DHT22;21425;50.454;30.466;2022-08-24T00:08:33;20.90;69.30
35313;DHT22;21425;50.454;30.466;2022-08-24T00:11:00;21.10;69.90
35313;DHT22;21425;50.454;30.466;2022-08-24T00:13:26;21.30;71.40
35313;DHT22;21425;50.454;30.466;2022-08-24T00:15:52;21.30;71.80
35313;DHT22;21425;50.454;30.466;2022-08-24T00:18:18;21.60;73.50
35313;DHT22;21425;50.454;30.466;2022-08-24T00:20:43;21.40;74.30
35313;DHT22;21425;50.454;30.466;2022-08-24T00:23:10;21.10;73.80
35313;DHT22;21425;50.454;30.466;2022-08-24T00:25:35;21.20;75.10
35313;DHT22;21425;50.454;30.466;2022-08-24T00:28:02;21.10;75.20
35313;DHT22;21425;50.454;30.466;2022-08-24T00:30:28;20.70;75.30
35313;DHT22;21425;50.454;30.466;2022-08-24T00:32:54;20.60;76.00
35313;DHT22;21425;50.454;30.466;2022-08-24T00:35:20;21.00;76.10
35313;DHT22;21425;50.454;30.466;2022-08-24T00:37:47;20.90;76.00
35313;DHT22;21425;50.454;30.466;2022-08-24T00:40:18;20.70;76.80
35313;DHT22;21425;50.454;30.466;2022-08-24T00:42:44;20.60;77.60
35313;DHT22;21425;50.454;30.466;2022-08-24T00:45:12;21.40;75.70
35313;DHT22;21425;50.454;30.466;2022-08-24T00:47:47;20.70;75.10
35313;DHT22;21425;50.454;30.466;2022-08-24T00:50:50;21.20;75.20
35313;DHT22;21425;50.454;30.466;2022-08-24T00:53:11;21.70;74.60
35313;DHT22;21425;50.454;30.466;2022-08-24T00:55:48;19.20;73.40
35313;DHT22;21425;50.454;30.466;2022-08-24T00:58:19;21.10;74.00
35313;DHT22;21425;50.454;30.466;2022-08-24T01:00:53;21.50;74.00
35313;DHT22;21425;50.454;30.466;2022-08-24T01:03:21;21.80;75.50
35313;DHT22;21425;50.454;30.466;2022-08-24T01:05:46;19.40;74.50
35313;DHT22;21425;50.454;30.466;2022-08-24T01:08:13;20.50;75.90
35313;DHT22;21425;50.454;30.466;2022-08-24T01:10:43;20.90;74.80
35313;DHT22;21425;50.454;30.466;2022-08-24T01:13:11;20.40;75.20
35313;DHT22;21425;50.454;30.466;2022-08-24T01:15:40;20.30;75.60
35313;DHT22;21425;50.454;30.466;2022-08-24T01:18:09;20.40;75.30
35313;DHT22;21425;50.454;30.466;2022-08-24T01:21:21;21.30;76.20
35313;DHT22;21425;50.454;30.466;2022-08-24T01:23:59;19.40;75.90
35313;DHT22;21425;50.454;30.466;2022-08-24T01:26:34;19.60;77.30
35313;DHT22;21425;50.454;30.466;2022-08-24T01:29:08;19.90;77.60
35313;DHT22;21425;50.454;30.466;2022-08-24T01:31:34;21.40;78.60
35313;DHT22;21425;50.454;30.466;2022-08-24T01:34:00;18.80;77.70
35313;DHT22;21425;50.454;30.466;2022-08-24T01:36:33;18.90;77.40
35313;DHT22;21425;50.454;30.466;2022-08-24T01:39:27;19.90;78.80
35313;DHT22;21425;50.454;30.466;2022-08-24T01:41:51;20.20;80.00
35313;DHT22;21425;50.454;30.466;2022-08-24T01:44:18;19.70;80.50
35313;DHT22;21425;50.454;30.466;2022-08-24T01:46:45;19.50;80.30
35313;DHT22;21425;50.454;30.466;2022-08-24T01:49:12;19.60;80.30
35313;DHT22;21425;50.454;30.466;2022-08-24T01:51:37;19.80;81.50
35313;DHT22;21425;50.454;30.466;2022-08-24T01:56:30;19.20;81.30
35313;DHT22;21425;50.454;30.466;2022-08-24T01:58:57;20.50;82.00
35313;DHT22;21425;50.454;30.466;2022-08-24T02:01:24;20.00;82.10
35313;DHT22;21425;50.454;30.466;2022-08-24T02:03:51;19.60;82.50
35313;DHT22;21425;50.454;30.466;2022-08-24T02:06:17;18.50;82.20
35313;DHT22;21425;50.454;30.466;2022-08-24T02:08:44;19.90;83.70
35313;DHT22;21425;50.454;30.466;2022-08-24T02:11:09;19.30;84.00
35313;DHT22;21425;50.454;30.466;2022-08-24T02:13:38;19.40;84.50
35313;DHT22;21425;50.454;30.466;2022-08-24T02:16:05;19.70;84.50
35313;DHT22;21425;50.454;30.466;2022-08-24T02:18:32;19.40;84.00
35313;DHT22;21425;50.454;30.466;2022-08-24T02:20:59;19.50;84.90
35313;DHT22;21425;50.454;30.466;2022-08-24T02:23:24;19.20;85.00
35313;DHT22;21425;50.454;30.466;2022-08-24T02:25:50;19.60;84.40
35313;DHT22;21425;50.454;30.466;2022-08-24T02:28:16;20.70;85.80
35313;DHT22;21425;50.454;30.466;2022-08-24T02:30:43;19.40;85.20
35313;DHT22;21425;50.454;30.466;2022-08-24T02:33:08;20.10;86.00
35313;DHT22;21425;50.454;30.466;2022-08-24T02:35:34;19.70;85.50
35313;DHT22;21425;50.454;30.466;2022-08-24T02:38:00;19.80;86.20
35313;DHT22;21425;50.454;30.466;2022-08-24T02:40:26;19.20;86.50
35313;DHT22;21425;50.454;30.466;2022-08-24T02:42:51;19.70;85.80
35313;DHT22;21425;50.454;30.466;2022-08-24T02:45:17;19.10;86.10
35313;DHT22;21425;50.454;30.466;2022-08-24T02:50:12;18.90;85.30
35313;DHT22;21425;50.454;30.466;2022-08-24T02:52:39;19.10;86.00
35313;DHT22;21425;50.454;30.466;2022-08-24T02:55:08;19.10;86.60
35313;DHT22;21425;50.454;30.466;2022-08-24T02:57:35;20.50;86.20
35313;DHT22;21425;50.454;30.466;2022-08-24T03:00:00;19.50;86.30
35313;DHT22;21425;50.454;30.466;2022-08-24T03:02:26;19.20;85.00
35313;DHT22;21425;50.454;30.466;2022-08-24T03:04:52;17.90;85.00
35313;DHT22;21425;50.454;30.466;2022-08-24T03:07:18;18.50;84.70
35313;DHT22;21425;50.454;30.466;2022-08-24T03:12:10;19.80;85.00
35313;DHT22;21425;50.454;30.466;2022-08-24T03:14:36;18.30;84.60
35313;DHT22;21425;50.454;30.466;2022-08-24T03:17:02;19.60;84.60
35313;DHT22;21425;50.454;30.466;2022-08-24T03:21:54;19.00;84.10
35313;DHT22;21425;50.454;30.466;2022-08-24T03:24:20;20.50;84.00
35313;DHT22;21425;50.454;30.466;2022-08-24T03:26:46;19.10;82.20
35313;DHT22;21425;50.454;30.466;2022-08-24T03:29:12;19.10;83.00
35313;DHT22;21425;50.454;30.466;2022-08-24T03:31:38;17.80;80.20
35313;DHT22;21425;50.454;30.466;2022-08-24T03:34:04;20.30;81.70
35313;DHT22;21425;50.454;30.466;2022-08-24T03:36:29;18.30;79.70
35313;DHT22;21425;50.454;30.466;2022-08-24T03:38:55;19.20;81.00
35313;DHT22;21425;50.454;30.466;2022-08-24T03:41:21;19.70;80.10
35313;DHT22;21425;50.454;30.466;2022-08-24T03:43:46;19.90;79.50
35313;DHT22;21425;50.454;30.466;2022-08-24T03:46:19;18.80;77.90
35313;DHT22;21425;50.454;30.466;2022-08-24T03:51:14;18.90;76.30
35313;DHT22;21425;50.454;30.466;2022-08-24T03:53:40;19.60;77.40
35313;DHT22;21425;50.454;30.466;2022-08-24T03:56:07;19.80;74.40
35313;DHT22;21425;50.454;30.466;2022-08-24T03:58:35;19.80;75.00
35313;DHT22;21425;50.454;30.466;2022-08-24T04:01:02;18.70;72.00
35313;DHT22;21425;50.454;30.466;2022-08-24T04:08:19;19.80;72.60
35313;DHT22;21425;50.454;30.466;2022-08-24T04:10:46;19.40;72.10
35313;DHT22;21425;50.454;30.466;2022-08-24T04:13:13;20.10;73.30
35313;DHT22;21425;50.454;30.466;2022-08-24T04:15:41;21.30;71.40
35313;DHT22;21425;50.454;30.466;2022-08-24T04:18:06;21.30;70.30
35313;DHT22;21425;50.454;30.466;2022-08-24T04:20:40;21.30;70.20
35313;DHT22;21425;50.454;30.466;2022-08-24T04:23:07;20.70;69.40
35313;DHT22;21425;50.454;30.466;2022-08-24T04:25:45;19.40;67.60
35313;DHT22;21425;50.454;30.466;2022-08-24T04:28:14;19.70;68.80
35313;DHT22;21425;50.454;30.466;2022-08-24T04:30:42;19.10;67.40
35313;DHT22;21425;50.454;30.466;2022-08-24T04:33:10;20.50;69.00
35313;DHT22;21425;50.454;30.466;2022-08-24T04:35:37;20.20;67.60
35313;DHT22;21425;50.454;30.466;2022-08-24T04:38:03;20.60;67.60
35313;DHT22;21425;50.454;30.466;2022-08-24T04:40:29;20.70;67.20
35313;DHT22;21425;50.454;30.466;2022-08-24T04:42:55;20.60;67.90
35313;DHT22;21425;50.454;30.466;2022-08-24T04:45:24;21.20;67.10
35313;DHT22;21425;50.454;30.466;2022-08-24T04:47:50;21.50;66.70
35313;DHT22;21425;50.454;30.466;2022-08-24T04:50:15;20.80;67.10
35313;DHT22;21425;50.454;30.466;2022-08-24T04:52:41;22.10;67.30
35313;DHT22;21425;50.454;30.466;2022-08-24T04:55:07;21.50;66.70
35313;DHT22;21425;50.454;30.466;2022-08-24T04:59:59;21.00;65.50
35313;DHT22;21425;50.454;30.466;2022-08-24T05:02:25;21.20;65.40
35313;DHT22;21425;50.454;30.466;2022-08-24T05:04:51;21.50;64.70
35313;DHT22;21425;50.454;30.466;2022-08-24T05:07:17;21.40;64.50
35313;DHT22;21425;50.454;30.466;2022-08-24T05:09:44;21.40;64.40
35313;DHT22;21425;50.454;30.466;2022-08-24T05:12:09;21.20;63.70
35313;DHT22;21425;50.454;30.466;2022-08-24T05:14:36;21.70;64.40
35313;DHT22;21425;50.454;30.466;2022-08-24T05:17:02;21.20;64.90
35313;DHT22;21425;50.454;30.466;2022-08-24T05:19:27;21.60;63.20
35313;DHT22;21425;50.454;30.466;2022-08-24T05:21:53;21.40;63.90
35313;DHT22;21425;50.454;30.466;2022-08-24T05:24:19;21.50;62.70
35313;DHT22;21425;50.454;30.466;2022-08-24T05:26:45;20.10;60.90
35313;DHT22;21425;50.454;30.466;2022-08-24T05:29:10;21.70;61.70
35313;DHT22;21425;50.454;30.466;2022-08-24T05:31:36;21.50;62.50
35313;DHT22;21425;50.454;30.466;2022-08-24T05:34:03;21.30;61.40
35313;DHT22;21425;50.454;30.466;2022-08-24T05:36:31;21.80;62.40
35313;DHT22;21425;50.454;30.466;2022-08-24T05:38:59;21.90;60.50
35313;DHT22;21425;50.454;30.466;2022-08-24T05:41:25;22.00;60.50
35313;DHT22;21425;50.454;30.466;2022-08-24T05:43:52;21.70;60.10
35313;DHT22;21425;50.454;30.466;2022-08-24T05:46:18;22.00;61.10
35313;DHT22;21425;50.454;30.466;2022-08-24T05:48:45;23.60;59.60
35313;DHT22;21425;50.454;30.466;2022-08-24T05:51:11;22.30;59.50
35313;DHT22;21425;50.454;30.466;2022-08-24T05:53:37;22.30;58.20
35313;DHT22;21425;50.454;30.466;2022-08-24T05:56:05;21.20;57.10
35313;DHT22;21425;50.454;30.466;2022-08-24T05:58:31;22.60;58.30
35313;DHT22;21425;50.454;30.466;2022-08-24T06:00:58;22.00;56.50
35313;DHT22;21425;50.454;30.466;2022-08-24T06:03:25;22.80;57.50
35313;DHT22;21425;50.454;30.466;2022-08-24T06:05:51;23.00;57.40
35313;DHT22;21425;50.454;30.466;2022-08-24T06:08:17;22.70;56.10
35313;DHT22;21425;50.454;30.466;2022-08-24T06:10:45;23.00;55.40
35313;DHT22;21425;50.454;30.466;2022-08-24T06:13:12;23.00;55.30
35313;DHT22;21425;50.454;30.466;2022-08-24T06:15:39;22.00;55.40
35313;DHT22;21425;50.454;30.466;2022-08-24T06:18:06;23.20;56.60
35313;DHT22;21425;50.454;30.466;2022-08-24T06:20:33;23.30;57.10
35313;DHT22;21425;50.454;30.466;2022-08-24T06:23:01;24.10;55.60
35313;DHT22;21425;50.454;30.466;2022-08-24T06:28:12;23.50;55.00
35313;DHT22;21425;50.454;30.466;2022-08-24T06:30:37;24.40;55.10
35313;DHT22;21425;50.454;30.466;2022-08-24T06:33:03;23.70;55.30
35313;DHT22;21425;50.454;30.466;2022-08-24T06:35:29;24.30;54.40
35313;DHT22;21425;50.454;30.466;2022-08-24T06:37:55;24.40;53.90
35313;DHT22;21425;50.454;30.466;2022-08-24T06:40:20;25.10;53.50
35313;DHT22;21425;50.454;30.466;2022-08-24T06:42:46;25.10;52.90
35313;DHT22;21425;50.454;30.466;2022-08-24T06:45:13;25.10;52.40
35313;DHT22;21425;50.454;30.466;2022-08-24T06:47:40;25.00;51.80
35313;DHT22;21425;50.454;30.466;2022-08-24T06:50:06;23.10;51.10
35313;DHT22;21425;50.454;30.466;2022-08-24T06:52:33;24.30;52.20
35313;DHT22;21425;50.454;30.466;2022-08-24T06:54:59;25.10;51.30
35313;DHT22;21425;50.454;30.466;2022-08-24T06:57:25;24.30;51.50
35313;DHT22;21425;50.454;30.466;2022-08-24T06:59:50;24.10;50.40
35313;DHT22;21425;50.454;30.466;2022-08-24T07:02:16;24.10;50.40
35313;DHT22;21425;50.454;30.466;2022-08-24T07:04:44;24.60;51.30
35313;DHT22;21425;50.454;30.466;2022-08-24T07:07:10;26.00;51.10
35313;DHT22;21425;50.454;30.466;2022-08-24T07:09:36;23.30;49.70
35313;DHT22;21425;50.454;30.466;2022-08-24T07:12:02;24.80;51.70
35313;DHT22;21425;50.454;30.466;2022-08-24T07:14:28;24.50;50.10
35313;DHT22;21425;50.454;30.466;2022-08-24T07:16:54;26.30;51.40
35313;DHT22;21425;50.454;30.466;2022-08-24T07:19:19;24.00;50.10
35313;DHT22;21425;50.454;30.466;2022-08-24T07:21:45;24.80;50.90
35313;DHT22;21425;50.454;30.466;2022-08-24T07:24:10;25.70;50.50
35313;DHT22;21425;50.454;30.466;2022-08-24T07:26:37;25.10;50.60
35313;DHT22;21425;50.454;30.466;2022-08-24T07:29:08;25.30;50.90
35313;DHT22;21425;50.454;30.466;2022-08-24T07:31:37;25.10;49.90
35313;DHT22;21425;50.454;30.466;2022-08-24T07:34:04;26.30;50.70
35313;DHT22;21425;50.454;30.466;2022-08-24T07:36:30;26.70;50.90
35313;DHT22;21425;50.454;30.466;2022-08-24T07:41:23;25.50;49.60
35313;DHT22;21425;50.454;30.466;2022-08-24T07:43:53;25.70;49.00
35313;DHT22;21425;50.454;30.466;2022-08-24T07:46:19;26.20;49.40
35313;DHT22;21425;50.454;30.466;2022-08-24T07:48:45;25.70;49.10
35313;DHT22;21425;50.454;30.466;2022-08-24T07:51:13;25.90;48.40
35313;DHT22;21425;50.454;30.466;2022-08-24T07:53:39;26.20;48.50
35313;DHT22;21425;50.454;30.466;2022-08-24T07:56:06;26.10;47.40
35313;DHT22;21425;50.454;30.466;2022-08-24T07:58:32;27.20;47.70
35313;DHT22;21425;50.454;30.466;2022-08-24T08:00:57;27.20;47.50
35313;DHT22;21425;50.454;30.466;2022-08-24T08:03:24;26.40;46.70
35313;DHT22;21425;50.454;30.466;2022-08-24T08:05:56;26.50;46.80
35313;DHT22;21425;50.454;30.466;2022-08-24T08:08:22;25.40;44.80
35313;DHT22;21425;50.454;30.466;2022-08-24T08:10:48;26.60;45.40
35313;DHT22;21425;50.454;30.466;2022-08-24T08:13:14;26.90;45.70
35313;DHT22;21425;50.454;30.466;2022-08-24T08:15:40;26.70;46.10
35313;DHT22;21425;50.454;30.466;2022-08-24T08:18:06;26.90;45.50
35313;DHT22;21425;50.454;30.466;2022-08-24T08:20:33;26.50;43.50
35313;DHT22;21425;50.454;30.466;2022-08-24T08:22:58;27.00;44.50
35313;DHT22;21425;50.454;30.466;2022-08-24T08:25:47;27.10;45.10
35313;DHT22;21425;50.454;30.466;2022-08-24T08:28:13;27.10;43.30
35313;DHT22;21425;50.454;30.466;2022-08-24T08:30:40;27.10;43.10
35313;DHT22;21425;50.454;30.466;2022-08-24T08:33:06;27.20;42.70
35313;DHT22;21425;50.454;30.466;2022-08-24T08:35:32;27.50;42.30
35313;DHT22;21425;50.454;30.466;2022-08-24T08:37:59;27.40;42.00
35313;DHT22;21425;50.454;30.466;2022-08-24T08:49:09;27.80;41.30
35313;DHT22;21425;50.454;30.466;2022-08-24T09:00:03;28.50;40.70
35313;DHT22;21425;50.454;30.466;2022-08-24T09:03:10;28.70;40.50
35313;DHT22;21425;50.454;30.466;2022-08-24T09:22:24;28.70;38.40
35313;DHT22;21425;50.454;30.466;2022-08-24T09:30:20;28.90;36.70
35313;DHT22;21425;50.454;30.466;2022-08-24T09:32:58;29.00;37.50
35313;DHT22;21425;50.454;30.466;2022-08-24T09:49:47;29.20;37.00
35313;DHT22;21425;50.454;30.466;2022-08-24T09:58:02;29.40;36.00
35313;DHT22;21425;50.454;30.466;2022-08-24T10:00:49;29.60;35.00
35313;DHT22;21425;50.454;30.466;2022-08-24T10:03:54;29.60;35.20
35313;DHT22;21425;50.454;30.466;2022-08-24T10:09:27;29.70;36.40
35313;DHT22;21425;50.454;30.466;2022-08-24T10:12:09;30.90;35.40
35313;DHT22;21425;50.454;30.466;2022-08-24T10:14:57;29.30;34.50
35313;DHT22;21425;50.454;30.466;2022-08-24T10:20:11;29.20;34.10
35313;DHT22;21425;50.454;30.466;2022-08-24T10:23:02;29.70;35.10
35313;DHT22;21425;50.454;30.466;2022-08-24T10:28:10;29.90;35.60
35313;DHT22;21425;50.454;30.466;2022-08-24T10:39:33;28.90;33.40
35313;DHT22;21425;50.454;30.466;2022-08-24T10:42:42;30.70;34.10
35313;DHT22;21425;50.454;30.466;2022-08-24T10:51:31;31.00;34.80
35313;DHT22;21425;50.454;30.466;2022-08-24T10:54:02;30.90;34.10
35313;DHT22;21425;50.454;30.466;2022-08-24T10:56:54;30.80;34.30
35313;DHT22;21425;50.454;30.466;2022-08-24T11:04:33;30.50;34.30
35313;DHT22;21425;50.454;30.466;2022-08-24T11:07:07;30.10;34.00
35313;DHT22;21425;50.454;30.466;2022-08-24T11:14:58;31.30;34.70
35313;DHT22;21425;50.454;30.466;2022-08-24T11:17:26;29.60;33.70
35313;DHT22;21425;50.454;30.466;2022-08-24T11:19:52;30.90;34.20
35313;DHT22;21425;50.454;30.466;2022-08-24T11:22:35;30.90;34.70
35313;DHT22;21425;50.454;30.466;2022-08-24T11:27:38;31.70;33.80
35313;DHT22;21425;50.454;30.466;2022-08-24T11:32:44;31.20;33.80
35313;DHT22;21425;50.454;30.466;2022-08-24T11:37:49;30.80;33.20
35313;DHT22;21425;50.454;30.466;2022-08-24T11:40:17;31.80;33.00
35313;DHT22;21425;50.454;30.466;2022-08-24T11:49:03;31.60;33.00
35313;DHT22;21425;50.454;30.466;2022-08-24T11:57:09;32.10;32.60
35313;DHT22;21425;50.454;30.466;2022-08-24T12:16:11;34.90;29.30
35313;DHT22;21425;50.454;30.466;2022-08-24T12:19:20;35.70;28.50
35313;DHT22;21425;50.454;30.466;2022-08-24T12:21:50;33.90;28.60
35313;DHT22;21425;50.454;30.466;2022-08-24T12:24:33;34.30;29.30
35313;DHT22;21425;50.454;30.466;2022-08-24T12:29:57;35.60;28.00
35313;DHT22;21425;50.454;30.466;2022-08-24T12:35:08;37.50;26.00
35313;DHT22;21425;50.454;30.466;2022-08-24T12:37:42;37.70;25.50
35313;DHT22;21425;50.454;30.466;2022-08-24T12:40:44;39.30;24.50
35313;DHT22;21425;50.454;30.466;2022-08-24T12:43:35;39.70;23.70
35313;DHT22;21425;50.454;30.466;2022-08-24T12:46:02;40.10;23.40
35313;DHT22;21425;50.454;30.466;2022-08-24T12:51:22;39.50;23.20
35313;DHT22;21425;50.454;30.466;2022-08-24T12:59:21;41.30;21.70
35313;DHT22;21425;50.454;30.466;2022-08-24T13:17:58;41.30;21.20
35313;DHT22;21425;50.454;30.466;2022-08-24T13:23:12;40.50;21.60
35313;DHT22;21425;50.454;30.466;2022-08-24T13:33:25;41.20;21.00
35313;DHT22;21425;50.454;30.466;2022-08-24T13:49:54;41.30;21.00
35313;DHT22;21425;50.454;30.466;2022-08-24T13:55:05;40.80;20.70
35313;DHT22;21425;50.454;30.466;2022-08-24T14:00:48;40.80;21.10
35313;DHT22;21425;50.454;30.466;2022-08-24T14:05:53;41.40;20.40
35313;DHT22;21425;50.454;30.466;2022-08-24T14:11:34;41.00;21.10
35313;DHT22;21425;50.454;30.466;2022-08-24T14:22:35;40.60;21.10
35313;DHT22;21425;50.454;30.466;2022-08-24T14:25:23;42.30;21.10
35313;DHT22;21425;50.454;30.466;2022-08-24T14:35:35;39.50;23.00
35313;DHT22;21425;50.454;30.466;2022-08-24T14:43:51;40.10;21.60
35313;DHT22;21425;50.454;30.466;2022-08-24T15:00:32;38.60;22.90
35313;DHT22;21425;50.454;30.466;2022-08-24T15:05:47;39.50;22.00
35313;DHT22;21425;50.454;30.466;2022-08-24T15:08:36;40.20;22.60
35313;DHT22;21425;50.454;30.466;2022-08-24T15:11:21;40.60;22.00
35313;DHT22;21425;50.454;30.466;2022-08-24T15:13:54;39.60;22.30
35313;DHT22;21425;50.454;30.466;2022-08-24T15:16:26;39.60;22.70
35313;DHT22;21425;50.454;30.466;2022-08-24T15:22:06;39.50;22.90
35313;DHT22;21425;50.454;30.466;2022-08-24T15:24:38;37.90;22.40
35313;DHT22;21425;50.454;30.466;2022-08-24T15:29:53;37.00;23.00
35313;DHT22;21425;50.454;30.466;2022-08-24T15:32:21;38.60;24.20
35313;DHT22;21425;50.454;30.466;2022-08-24T15:34:48;37.40;24.50
35313;DHT22;21425;50.454;30.466;2022-08-24T15:37:24;37.60;25.20
35313;DHT22;21425;50.454;30.466;2022-08-24T15:44:44;36.90;26.40
35313;DHT22;21425;50.454;30.466;2022-08-24T15:50:07;36.30;25.60
35313;DHT22;21425;50.454;30.466;2022-08-24T15:55:03;36.50;25.90
35313;DHT22;21425;50.454;30.466;2022-08-24T15:57:34;34.90;24.90
35313;DHT22;21425;50.454;30.466;2022-08-24T16:00:08;34.60;25.60
35313;DHT22;21425;50.454;30.466;2022-08-24T16:02:35;35.70;26.60
35313;DHT22;21425;50.454;30.466;2022-08-24T16:05:34;35.90;26.50
35313;DHT22;21425;50.454;30.466;2022-08-24T16:10:50;35.70;27.30
35313;DHT22;21425;50.454;30.466;2022-08-24T16:18:19;34.80;27.90
35313;DHT22;21425;50.454;30.466;2022-08-24T16:20:46;33.60;28.70
35313;DHT22;21425;50.454;30.466;2022-08-24T16:23:26;35.00;29.50
35313;DHT22;21425;50.454;30.466;2022-08-24T16:28:42;34.50;30.10
35313;DHT22;21425;50.454;30.466;2022-08-24T16:31:08;32.70;29.90
35313;DHT22;21425;50.454;30.466;2022-08-24T16:33:43;32.80;30.50
35313;DHT22;21425;50.454;30.466;2022-08-24T16:36:13;31.50;31.30
35313;DHT22;21425;50.454;30.466;2022-08-24T16:38:40;31.40;31.80
35313;DHT22;21425;50.454;30.466;2022-08-24T16:41:09;31.30;32.30
35313;DHT22;21425;50.454;30.466;2022-08-24T16:43:38;29.80;32.30
35313;DHT22;21425;50.454;30.466;2022-08-24T16:46:07;29.70;33.10
35313;DHT22;21425;50.454;30.466;2022-08-24T16:50:59;29.10;35.40
35313;DHT22;21425;50.454;30.466;2022-08-24T16:53:25;29.60;37.00
35313;DHT22;21425;50.454;30.466;2022-08-24T16:55:51;28.70;37.00
35313;DHT22;21425;50.454;30.466;2022-08-24T16:58:17;29.40;38.60
35313;DHT22;21425;50.454;30.466;2022-08-24T17:00:43;28.00;38.80
35313;DHT22;21425;50.454;30.466;2022-08-24T17:03:10;27.60;39.00
35313;DHT22;21425;50.454;30.466;2022-08-24T17:05:36;28.20;39.80
35313;DHT22;21425;50.454;30.466;2022-08-24T17:08:02;27.60;40.10
35313;DHT22;21425;50.454;30.466;2022-08-24T17:10:28;26.30;39.80
35313;DHT22;21425;50.454;30.466;2022-08-24T17:15:20;27.10;41.00
35313;DHT22;21425;50.454;30.466;2022-08-24T17:17:54;28.10;42.20
35313;DHT22;21425;50.454;30.466;2022-08-24T17:20:21;27.50;42.30
35313;DHT22;21425;50.454;30.466;2022-08-24T17:22:46;28.00;42.90
35313;DHT22;21425;50.454;30.466;2022-08-24T17:25:12;26.40;42.30
35313;DHT22;21425;50.454;30.466;2022-08-24T17:27:37;26.60;43.20
35313;DHT22;21425;50.454;30.466;2022-08-24T17:30:04;26.60;43.60
35313;DHT22;21425;50.454;30.466;2022-08-24T17:32:30;26.50;43.90
35313;DHT22;21425;50.454;30.466;2022-08-24T17:37:22;25.40;43.30
35313;DHT22;21425;50.454;30.466;2022-08-24T17:39:52;27.00;44.70
35313;DHT22;21425;50.454;30.466;2022-08-24T17:42:18;25.00;43.60
35313;DHT22;21425;50.454;30.466;2022-08-24T17:44:44;25.60;44.50
35313;DHT22;21425;50.454;30.466;2022-08-24T17:47:10;26.10;45.00
35313;DHT22;21425;50.454;30.466;2022-08-24T17:52:04;26.50;45.80
35313;DHT22;21425;50.454;30.466;2022-08-24T17:54:30;25.80;45.80
35313;DHT22;21425;50.454;30.466;2022-08-24T17:56:56;26.30;46.20
35313;DHT22;21425;50.454;30.466;2022-08-24T17:59:28;25.60;46.20
35313;DHT22;21425;50.454;30.466;2022-08-24T18:02:00;25.70;46.60
35313;DHT22;21425;50.454;30.466;2022-08-24T18:04:28;25.70;46.70
35313;DHT22;21425;50.454;30.466;2022-08-24T18:07:00;25.70;47.40
35313;DHT22;21425;50.454;30.466;2022-08-24T18:11:53;25.60;47.30
35313;DHT22;21425;50.454;30.466;2022-08-24T18:14:19;24.60;47.00
35313;DHT22;21425;50.454;30.466;2022-08-24T18:16:44;24.60;47.10
35313;DHT22;21425;50.454;30.466;2022-08-24T18:19:11;25.40;48.20
35313;DHT22;21425;50.454;30.466;2022-08-24T18:21:38;25.60;48.00
35313;DHT22;21425;50.454;30.466;2022-08-24T18:24:04;25.30;48.00
35313;DHT22;21425;50.454;30.466;2022-08-24T18:26:30;24.20;47.70
35313;DHT22;21425;50.454;30.466;2022-08-24T18:29:09;25.20;48.80
35313;DHT22;21425;50.454;30.466;2022-08-24T18:31:35;24.40;48.20
35313;DHT22;21425;50.454;30.466;2022-08-24T18:34:01;26.40;49.60
35313;DHT22;21425;50.454;30.466;2022-08-24T18:36:26;24.80;48.70
35313;DHT22;21425;50.454;30.466;2022-08-24T18:43:45;24.90;49.00
35313;DHT22;21425;50.454;30.466;2022-08-24T18:46:12;25.00;49.90
35313;DHT22;21425;50.454;30.466;2022-08-24T18:48:38;24.30;49.40
35313;DHT22;21425;50.454;30.466;2022-08-24T18:51:04;24.70;49.90
35313;DHT22;21425;50.454;30.466;2022-08-24T18:53:29;24.70;50.10
35313;DHT22;21425;50.454;30.466;2022-08-24T18:55:55;24.60;50.30
35313;DHT22;21425;50.454;30.466;2022-08-24T18:58:21;24.60;50.60
35313;DHT22;21425;50.454;30.466;2022-08-24T19:00:47;24.60;50.80
35313;DHT22;21425;50.454;30.466;2022-08-24T19:03:15;24.70;51.10
35313;DHT22;21425;50.454;30.466;2022-08-24T19:08:09;24.10;51.20
35313;DHT22;21425;50.454;30.466;2022-08-24T19:10:35;24.40;51.90
35313;DHT22;21425;50.454;30.466;2022-08-24T19:13:06;24.10;51.50
35313;DHT22;21425;50.454;30.466;2022-08-24T19:15:32;24.60;52.00
35313;DHT22;21425;50.454;30.466;2022-08-24T19:17:58;24.30;52.50
35313;DHT22;21425;50.454;30.466;2022-08-24T19:20:24;24.40;52.50
35313;DHT22;21425;50.454;30.466;2022-08-24T19:22:52;24.20;53.10
35313;DHT22;21425;50.454;30.466;2022-08-24T19:25:24;24.20;52.70
35313;DHT22;21425;50.454;30.466;2022-08-24T19:27:51;24.50;53.10
35313;DHT22;21425;50.454;30.466;2022-08-24T19:32:46;24.10;53.00
35313;DHT22;21425;50.454;30.466;2022-08-24T19:35:13;24.50;53.60
35313;DHT22;21425;50.454;30.466;2022-08-24T19:37:39;24.80;53.80
35313;DHT22;21425;50.454;30.466;2022-08-24T19:40:06;24.00;54.00
35313;DHT22;21425;50.454;30.466;2022-08-24T19:42:32;22.80;52.70
35313;DHT22;21425;50.454;30.466;2022-08-24T19:45:01;24.20;53.20
35313;DHT22;21425;50.454;30.466;2022-08-24T19:47:45;24.40;53.50
35313;DHT22;21425;50.454;30.466;2022-08-24T19:50:11;23.90;53.90
35313;DHT22;21425;50.454;30.466;2022-08-24T19:52:39;25.40;54.00
35313;DHT22;21425;50.454;30.466;2022-08-24T19:55:06;22.60;52.80
35313;DHT22;21425;50.454;30.466;2022-08-24T20:00:03;24.90;54.30
35313;DHT22;21425;50.454;30.466;2022-08-24T20:02:29;23.50;53.50
35313;DHT22;21425;50.454;30.466;2022-08-24T20:04:55;23.60;54.10
35313;DHT22;21425;50.454;30.466;2022-08-24T20:07:21;23.50;53.70
35313;DHT22;21425;50.454;30.466;2022-08-24T20:09:47;23.50;54.10
35313;DHT22;21425;50.454;30.466;2022-08-24T20:12:12;23.70;54.20
35313;DHT22;21425;50.454;30.466;2022-08-24T20:14:38;23.90;54.60
35313;DHT22;21425;50.454;30.466;2022-08-24T20:17:04;23.40;54.30
35313;DHT22;21425;50.454;30.466;2022-08-24T20:19:36;23.20;54.70
35313;DHT22;21425;50.454;30.466;2022-08-24T20:24:29;23.20;55.30
35313;DHT22;21425;50.454;30.466;2022-08-24T20:26:55;21.90;55.30
35313;DHT22;21425;50.454;30.466;2022-08-24T20:29:22;23.00;56.00
35313;DHT22;21425;50.454;30.466;2022-08-24T20:31:48;23.10;56.00
35313;DHT22;21425;50.454;30.466;2022-08-24T20:34:14;21.60;55.80
35313;DHT22;21425;50.454;30.466;2022-08-24T20:36:44;22.90;57.10
35313;DHT22;21425;50.454;30.466;2022-08-24T20:39:13;22.90;57.60